This is the latest recevied weather packets stored in our database for station/object YO8CLN-10. If no packets are shown the sender has not sent any weather packets the latest 1 day(s).
| Time | Temp. | Humidity | Pressure | Rain* | Wind** | Luminosity | Snow |
|---|---|---|---|---|---|---|---|
| 1778082103 | 25.56° C | 24% | 1111 hPa | 0 mm | - | - | - |
| 1778080902 | 25.56° C | 26% | 1111 hPa | 0 mm | - | - | - |
| 1778079701 | 26.11° C | 24% | 1111 hPa | 0 mm | - | - | - |
| 1778076698 | 23.89° C | 29% | 1111 hPa | 0 mm | - | - | - |
| 1778076339 | 23.33° C | 30% | 1111 hPa | 0 mm | - | - | - |
| 1778075497 | 22.22° C | 31% | 1111 hPa | 0 mm | - | - | - |
| 1778074296 | 22.22° C | 31% | 1111 hPa | 0 mm | - | - | - |
| 1778073695 | 22.22° C | 31% | 1111 hPa | 0 mm | - | - | - |
| 1778071293 | 22.22° C | 33% | 1111 hPa | 0 mm | - | - | - |
| 1778069491 | 23.89° C | 31% | 1111 hPa | 0 mm | - | - | - |
| 1778067089 | 23.89° C | 31% | 1111 hPa | 0 mm | - | - | - |
| 1778065287 | 25° C | 32% | 1111 hPa | 0 mm | - | - | - |
| 1778064086 | 23.89° C | 33% | 1111 hPa | 0 mm | - | - | - |
| 1778062885 | 23.89° C | 32% | 1111 hPa | 0 mm | - | - | - |
| 1778062284 | 25° C | 31% | 1111 hPa | 0 mm | - | - | - |
| 1778061083 | 25.56° C | 30% | 1111 hPa | 0 mm | - | - | - |
| 1778060482 | 25.56° C | 31% | 1111 hPa | 0 mm | - | - | - |
| 1778059882 | 25° C | 33% | 1111 hPa | 0 mm | - | - | - |
| 1778059281 | 25° C | 35% | 1111 hPa | 0 mm | - | - | - |
| 1778058681 | 24.44° C | 35% | 1111 hPa | 0 mm | - | - | - |
| 1778056879 | 23.89° C | 37% | 1111 hPa | 0 mm | - | - | - |
| 1778055678 | 22.78° C | 38% | 1111 hPa | 0 mm | - | - | - |
| 1778055077 | 22.22° C | 42% | 1111 hPa | 0 mm | - | - | - |
| 1778054477 | 21.11° C | 44% | 1111 hPa | 0 mm | - | - | - |
| 1778053876 | 20.56° C | 45% | 1111 hPa | 0 mm | - | - | - |
* Rain latest hour (hover to see other rain measurements)
** Current wind speed in m/s (hover to see current wind gust speed)